Time;durP1;ratioP1;P1;durP2;ratioP2;P2;SDS_P1;SDS_P2;PMS_P1;PMS_P2;Temp;Humidity;BMP_temperature;BMP_pressure;BME280_temperature;BME280_humidity;BME280_pressure;Samples;Min_cycle;Max_cycle;Signal;HPM_P1;HPM_P2
2021/01/28 00:00:42;;;;;;;22.70;10.85;;;;;;;4.73;100.00;100954.03;5028993;28;20041;-61
2021/01/28 00:03:10;;;;;;;30.90;11.48;;;;;;;4.71;100.00;100954.16;5028620;28;20119;-61
2021/01/28 00:05:38;;;;;;;17.13;7.32;;;;;;;4.59;100.00;100946.03;5029061;28;20052;-61
2021/01/28 00:08:06;;;;;;;14.52;5.20;;;;;;;4.73;100.00;100952.22;5027265;28;20055;-61
2021/01/28 00:10:32;;;;;;;15.35;5.82;;;;;;;4.76;100.00;100945.84;5028128;28;20049;-61
2021/01/28 00:13:00;;;;;;;9.60;4.97;;;;;;;4.68;100.00;100948.13;5030120;28;20052;-60
2021/01/28 00:15:30;;;;;;;11.77;4.60;;;;;;;4.72;100.00;100949.66;5021429;28;20053;-62
2021/01/28 00:17:57;;;;;;;15.00;6.25;;;;;;;4.59;100.00;100951.38;5030155;28;20057;-60
2021/01/28 00:20:26;;;;;;;10.57;5.38;;;;;;;4.61;100.00;100949.47;5029179;28;20462;-60
2021/01/28 00:22:52;;;;;;;10.05;4.72;;;;;;;4.59;100.00;100940.72;5029276;28;20045;-60
2021/01/28 00:25:21;;;;;;;8.95;4.35;;;;;;;4.52;100.00;100933.09;5027768;28;20037;-61
2021/01/28 00:27:48;;;;;;;12.50;5.03;;;;;;;4.54;100.00;100933.84;5029167;28;20045;-62
2021/01/28 00:30:16;;;;;;;12.70;4.30;;;;;;;4.51;100.00;100923.38;5029771;28;20060;-60
2021/01/28 00:32:42;;;;;;;12.63;4.40;;;;;;;4.44;100.00;100908.72;5056762;22;555688;-61
2021/01/28 00:35:12;;;;;;;8.77;4.30;;;;;;;4.48;100.00;100917.41;5058241;28;20893;-60
2021/01/28 00:37:38;;;;;;;9.13;3.58;;;;;;;4.44;100.00;100910.53;5065820;28;20056;-61
2021/01/28 00:40:04;;;;;;;8.43;4.00;;;;;;;4.52;100.00;100902.91;5074840;28;20431;-61
2021/01/28 00:42:31;;;;;;;7.45;3.72;;;;;;;4.63;100.00;100894.25;5077584;28;20074;-61
2021/01/28 00:44:57;;;;;;;8.15;3.83;;;;;;;4.61;100.00;100890.81;5074476;28;20060;-60
2021/01/28 00:47:23;;;;;;;10.00;4.88;;;;;;;4.63;100.00;100886.25;5074210;28;20392;-61
2021/01/28 00:49:49;;;;;;;7.45;4.43;;;;;;;4.70;100.00;100890.25;5075320;28;20052;-61
2021/01/28 00:52:15;;;;;;;10.55;4.10;;;;;;;4.48;100.00;100880.94;5075560;28;20118;-59
2021/01/28 00:54:41;;;;;;;9.45;4.57;;;;;;;4.51;100.00;100878.06;5078074;28;20037;-61
2021/01/28 00:57:07;;;;;;;9.55;4.00;;;;;;;4.52;100.00;100865.59;5077357;28;20052;-60
2021/01/28 00:59:34;;;;;;;10.23;4.80;;;;;;;4.46;100.00;100852.66;5074363;28;20171;-60
2021/01/28 01:02:00;;;;;;;10.38;4.88;;;;;;;4.43;100.00;100850.19;5056792;28;20048;-61
2021/01/28 01:04:26;;;;;;;13.93;4.65;;;;;;;4.49;100.00;100861.34;5051928;28;20405;-61
2021/01/28 01:06:56;;;;;;;9.85;4.22;;;;;;;4.38;100.00;100847.81;5058091;28;20060;-61
2021/01/28 01:09:23;;;;;;;10.63;4.50;;;;;;;4.38;100.00;100847.81;5056889;28;20053;-61
2021/01/28 01:11:49;;;;;;;16.25;5.15;;;;;;;4.36;100.00;100847.91;5051786;28;20499;-61
2021/01/28 01:14:15;;;;;;;12.50;5.18;;;;;;;4.45;100.00;100849.16;5055132;28;20099;-60
2021/01/28 01:16:42;;;;;;;12.88;5.15;;;;;;;4.51;100.00;100853.25;5054515;28;20048;-61
2021/01/28 01:21:34;;;;;;;14.55;5.50;;;;;;;4.49;100.00;100845.34;4873678;22;20069;-61
2021/01/28 01:24:00;;;;;;;11.77;5.25;;;;;;;4.38;100.00;100837.16;5029282;28;20053;-61
2021/01/28 01:26:26;;;;;;;17.08;6.32;;;;;;;4.35;100.00;100832.03;5026417;28;20054;-61
2021/01/28 01:28:52;;;;;;;14.45;6.60;;;;;;;4.36;100.00;100823.09;5026806;28;20110;-62
2021/01/28 01:31:18;;;;;;;12.98;5.68;;;;;;;4.40;100.00;100827.25;5026746;28;20053;-61
2021/01/28 01:33:45;;;;;;;13.82;6.07;;;;;;;4.39;100.00;100826.41;5026280;28;20552;-62
2021/01/28 01:36:11;;;;;;;13.30;5.85;;;;;;;4.47;100.00;100828.56;5022953;28;20057;-61
2021/01/28 01:38:36;;;;;;;12.82;6.22;;;;;;;4.44;100.00;100826.09;5024427;28;20407;-61
2021/01/28 01:41:03;;;;;;;18.05;6.63;;;;;;;4.37;100.00;100817.66;5024291;28;20064;-62
2021/01/28 01:43:29;;;;;;;13.10;6.35;;;;;;;4.33;100.00;100804.63;5028460;28;20406;-62
2021/01/28 01:45:58;;;;;;;13.77;6.55;;;;;;;4.31;100.00;100811.84;5025815;28;20054;-62
2021/01/28 01:48:28;;;;;;;15.27;6.05;;;;;;;4.30;100.00;100810.13;5024540;28;20045;-62
2021/01/28 01:50:58;;;;;;;18.83;6.00;;;;;;;4.35;100.00;100805.38;5028452;28;20041;-61
2021/01/28 01:53:28;;;;;;;16.60;6.97;;;;;;;4.40;100.00;100787.28;5027506;28;20045;-61
2021/01/28 01:55:56;;;;;;;;;;;;;;;4.37;100.00;100793.69;5027531;28;20049;-61
2021/01/28 01:58:39;;;;;;;14.03;6.67;;;;;;;4.47;100.00;100796.59;5023619;28;19925;-61
2021/01/28 02:01:05;;;;;;;18.92;6.70;;;;;;;4.44;100.00;100791.47;5017959;28;20178;-61
2021/01/28 02:03:33;;;;;;;16.98;6.95;;;;;;;4.35;100.00;100805.38;5024121;28;20052;-61
2021/01/28 02:06:09;;;;;;;17.70;6.82;;;;;;;4.33;100.00;100786.00;5021522;28;20050;-62
2021/01/28 02:08:35;;;;;;;14.57;7.10;;;;;;;4.34;100.00;100780.56;5043962;28;20502;-61
2021/01/28 02:11:08;;;;;;;18.58;6.40;;;;;;;4.29;100.00;100765.81;5043641;28;20487;-61
2021/01/28 02:13:33;;;;;;;19.63;7.78;;;;;;;4.35;100.00;100760.94;5044959;28;20097;-61
2021/01/28 02:16:01;;;;;;;15.68;6.75;;;;;;;4.30;100.00;100755.06;5034356;28;20045;-62
2021/01/28 02:18:28;;;;;;;16.67;6.85;;;;;;;4.35;100.00;100752.94;5044401;28;20106;-62
2021/01/28 02:21:07;;;;;;;14.05;6.70;;;;;;;4.45;100.00;100741.72;5046970;28;20498;-61
2021/01/28 02:23:45;;;;;;;12.70;5.70;;;;;;;4.54;100.00;100741.09;5045857;28;20053;-61
2021/01/28 02:35:50;;;;;;;18.42;6.60;;;;;;;4.29;100.00;100705.38;5057069;28;20297;-61
2021/01/28 02:38:16;;;;;;;15.75;7.05;;;;;;;4.33;100.00;100695.41;5069633;28;20049;-61
2021/01/28 02:40:42;;;;;;;16.95;6.45;;;;;;;4.48;100.00;100694.38;5069556;28;20044;-61
2021/01/28 02:46:15;;;;;;;15.63;6.93;;;;;;;4.30;100.00;100684.91;5065373;28;21917;-61
2021/01/28 02:48:48;;;;;;;14.20;6.57;;;;;;;4.32;100.00;100677.69;5106357;22;20748;-61
2021/01/28 02:51:16;;;;;;;16.33;6.80;;;;;;;4.31;100.00;100681.28;5062342;28;20044;-61
2021/01/28 02:53:45;;;;;;;21.27;7.38;;;;;;;4.31;100.00;100676.81;5068360;28;20052;-61
2021/01/28 02:56:11;;;;;;;17.25;7.32;;;;;;;4.29;100.00;100683.22;5065800;28;20055;-62
2021/01/28 02:58:37;;;;;;;14.65;6.88;;;;;;;4.34;100.00;100691.75;5074274;28;20048;-62
2021/01/28 03:01:04;;;;;;;15.40;7.00;;;;;;;4.44;100.00;100695.53;5074514;28;20054;-61
2021/01/28 03:03:30;;;;;;;20.17;6.90;;;;;;;4.51;100.00;100707.50;5088188;28;20048;-62
2021/01/28 03:05:56;;;;;;;14.45;7.05;;;;;;;4.54;100.00;100704.63;5071095;28;20044;-61
2021/01/28 03:08:24;;;;;;;14.45;6.93;;;;;;;4.51;100.00;100719.97;5068360;28;20094;-62
2021/01/28 03:10:50;;;;;;;12.43;6.28;;;;;;;4.38;100.00;100710.09;5086059;28;20165;-61
2021/01/28 03:13:16;;;;;;;16.77;6.40;;;;;;;4.41;100.00;100703.72;5086012;28;20056;-61
2021/01/28 03:15:42;;;;;;;15.63;6.88;;;;;;;4.44;100.00;100706.19;5079362;28;20135;-61
2021/01/28 03:18:08;;;;;;;11.48;6.18;;;;;;;4.48;100.00;100694.38;5073417;28;20043;-62
2021/01/28 03:20:34;;;;;;;14.77;6.65;;;;;;;4.37;100.00;100675.56;5078162;28;20056;-62
2021/01/28 03:23:01;;;;;;;15.95;6.38;;;;;;;4.35;100.00;100662.34;5073037;28;20052;-61
2021/01/28 03:25:28;;;;;;;13.55;6.25;;;;;;;4.42;100.00;100662.81;5086742;28;20040;-61
2021/01/28 03:27:54;;;;;;;22.45;6.60;;;;;;;4.49;100.00;100663.25;5084539;28;20136;-61
2021/01/28 03:30:24;;;;;;;10.13;5.53;;;;;;;4.56;100.00;100662.75;5066751;28;20048;-61
2021/01/28 03:32:51;;;;;;;9.57;5.10;;;;;;;4.53;100.00;100659.41;5081631;28;20056;-61
2021/01/28 03:35:18;;;;;;;13.40;5.70;;;;;;;4.39;100.00;100663.00;5071294;28;20060;-61
2021/01/28 03:38:21;;;;;;;16.23;6.75;;;;;;;4.33;100.00;100648.28;5076277;22;20075;-62
2021/01/28 03:40:48;;;;;;;14.90;5.90;;;;;;;4.31;100.00;100644.00;4990102;28;20105;-61
2021/01/28 03:43:14;;;;;;;15.60;6.65;;;;;;;4.32;100.00;100659.88;4990318;28;20058;-61
2021/01/28 03:45:40;;;;;;;17.08;6.15;;;;;;;4.34;100.00;100659.78;4988679;28;20050;-61
2021/01/28 03:48:07;;;;;;;13.55;6.38;;;;;;;4.32;100.00;100648.38;4990124;28;20046;-61
2021/01/28 03:50:35;;;;;;;16.27;6.22;;;;;;;4.29;100.00;100651.25;5009548;28;20054;-61
2021/01/28 03:53:01;;;;;;;14.77;6.45;;;;;;;4.33;100.00;100658.09;5006754;28;20057;-62
2021/01/28 03:55:28;;;;;;;10.43;5.68;;;;;;;4.29;100.00;100662.75;5008524;28;20048;-61
2021/01/28 03:57:56;;;;;;;12.60;5.97;;;;;;;4.30;100.00;100648.47;4992315;28;20069;-61
2021/01/28 04:00:26;;;;;;;13.18;6.40;;;;;;;4.24;100.00;100642.69;5006334;28;22520;-61
2021/01/28 04:02:52;;;;;;;14.35;6.10;;;;;;;4.20;100.00;100637.56;5007711;28;20169;-61
2021/01/28 04:05:18;;;;;;;15.93;6.95;;;;;;;4.16;100.00;100633.38;5006944;28;20049;-61
2021/01/28 04:07:45;;;;;;;14.40;7.30;;;;;;;4.19;100.00;100619.03;4988861;28;20050;-61
2021/01/28 04:10:15;;;;;;;17.80;8.73;;;;;;;4.20;100.00;100620.75;4988869;28;20042;-61
2021/01/28 04:12:41;;;;;;;15.10;7.03;;;;;;;4.19;100.00;100603.03;4990784;28;20050;-61
2021/01/28 04:15:10;;;;;;;14.18;6.18;;;;;;;4.19;100.00;100595.88;4985872;28;20108;-61
2021/01/28 04:17:36;;;;;;;16.77;6.43;;;;;;;4.22;100.00;100594.84;4992735;28;20061;-61
2021/01/28 04:20:04;;;;;;;15.13;6.30;;;;;;;4.24;100.00;100592.06;5006168;28;20061;-61
2021/01/28 04:22:30;;;;;;;17.25;6.82;;;;;;;4.10;100.00;100582.34;5007264;28;20041;-61
2021/01/28 04:24:56;;;;;;;12.70;6.05;;;;;;;4.07;100.00;100572.75;5009382;28;20119;-60
2021/01/28 04:27:22;;;;;;;14.43;6.07;;;;;;;4.11;100.00;100568.06;5008171;28;20514;-61
2021/01/28 04:29:48;;;;;;;15.35;7.18;;;;;;;4.07;100.00;100555.91;5005616;28;20137;-62
2021/01/28 04:32:15;;;;;;;13.73;6.32;;;;;;;4.12;100.00;100549.34;4997416;28;20107;-62
2021/01/28 04:34:41;;;;;;;12.60;5.50;;;;;;;4.17;100.00;100544.53;5001725;28;20064;-61
2021/01/28 04:37:07;;;;;;;10.25;5.53;;;;;;;4.15;100.00;100538.47;4995289;28;20511;-62
2021/01/28 04:39:32;;;;;;;10.98;5.70;;;;;;;4.19;100.00;100539.94;5006982;28;20569;-61
2021/01/28 04:44:49;;;;;;;13.93;5.32;;;;;;;4.16;100.00;100521.50;5025456;28;20053;-60
2021/01/28 04:47:20;;;;;;;10.52;5.32;;;;;;;4.15;100.00;100525.16;5025092;28;20053;-61
2021/01/28 04:49:53;;;;;;;13.20;5.78;;;;;;;4.12;100.00;100520.03;5029008;28;20054;-61
2021/01/28 04:52:19;;;;;;;15.00;6.22;;;;;;;4.12;100.00;100517.38;5029673;28;20050;-61
2021/01/28 04:54:45;;;;;;;12.00;5.80;;;;;;;4.07;100.00;100507.97;5030458;28;20103;-61
2021/01/28 04:57:13;;;;;;;14.43;5.88;;;;;;;4.06;100.00;100501.78;5024239;28;20064;-61
2021/01/28 04:59:43;;;;;;;19.25;6.93;;;;;;;4.02;100.00;100498.47;5032780;28;20080;-61
2021/01/28 05:02:11;;;;;;;;;;;;;;;4.13;100.00;100483.59;5036946;28;20057;-61
2021/01/28 05:04:42;;;;;;;14.45;6.55;;;;;;;4.13;100.00;100475.59;5025875;28;19928;-61
2021/01/28 05:07:11;;;;;;;15.18;6.78;;;;;;;4.11;100.00;100480.16;5040211;28;20053;-61
2021/01/28 05:09:37;;;;;;;19.25;7.60;;;;;;;4.14;100.00;100472.84;5032064;28;20056;-61
2021/01/28 05:12:04;;;;;;;15.43;6.28;;;;;;;4.17;100.00;100474.44;5045940;28;20053;-61
2021/01/28 05:14:32;;;;;;;16.48;6.80;;;;;;;4.20;100.00;100468.91;5044524;28;20042;-61
2021/01/28 05:17:00;;;;;;;15.75;6.68;;;;;;;4.19;100.00;100465.38;5043229;28;20063;-61
2021/01/28 05:19:37;;;;;;;14.85;7.03;;;;;;;4.16;100.00;100454.91;5044217;28;20055;-61
2021/01/28 05:22:19;;;;;;;16.95;7.72;;;;;;;4.19;100.00;100464.53;5043649;28;20206;-62
2021/01/28 05:24:48;;;;;;;18.25;7.97;;;;;;;4.11;100.00;100458.84;5045338;28;20053;-61
2021/01/28 05:27:19;;;;;;;13.88;6.55;;;;;;;4.15;100.00;100439.03;5041826;28;20556;-61
2021/01/28 05:29:47;;;;;;;15.63;7.22;;;;;;;4.14;100.00;100435.53;5043666;28;20140;-61
2021/01/28 05:32:31;;;;;;;14.18;6.22;;;;;;;4.18;100.00;100434.38;5045358;28;20044;-61
2021/01/28 05:35:13;;;;;;;13.95;6.22;;;;;;;4.16;100.00;100422.97;5043202;28;20064;-61
2021/01/28 05:37:40;;;;;;;14.32;6.07;;;;;;;4.17;100.00;100424.69;5045137;28;20048;-61
2021/01/28 05:40:13;;;;;;;14.30;5.63;;;;;;;4.23;100.00;100418.06;5041227;28;20053;-61
2021/01/28 05:42:41;;;;;;;16.23;6.03;;;;;;;4.19;100.00;100406.75;5045696;28;20057;-61
2021/01/28 05:45:23;;;;;;;10.73;5.32;;;;;;;4.20;100.00;100418.28;5042468;28;20053;-62
2021/01/28 05:47:51;;;;;;;9.73;5.22;;;;;;;4.07;100.00;100401.47;5042472;28;20049;-61
2021/01/28 05:50:21;;;;;;;10.20;4.30;;;;;;;4.10;100.00;100388.75;5038731;28;20552;-61
2021/01/28 05:52:48;;;;;;;11.25;4.72;;;;;;;4.11;100.00;100381.63;5044133;28;20052;-61
2021/01/28 05:55:17;;;;;;;10.43;4.93;;;;;;;4.07;100.00;100373.00;5043145;28;20041;-61
2021/01/28 05:57:49;;;;;;;10.63;4.82;;;;;;;4.07;100.00;100370.34;5042159;28;20506;-61
2021/01/28 06:00:22;;;;;;;13.18;5.10;;;;;;;4.02;100.00;100369.81;5039293;28;20057;-61
2021/01/28 06:03:22;;;;;;;8.60;4.63;;;;;;;4.01;100.00;100362.78;5036041;28;20061;-62
2021/01/28 06:06:00;;;;;;;9.20;4.88;;;;;;;3.98;100.00;100360.34;5042081;28;20049;-61
2021/01/28 06:08:42;;;;;;;11.57;5.37;;;;;;;3.93;100.00;100350.00;5044478;28;20048;-60
2021/01/28 06:11:32;;;;;;;13.73;5.35;;;;;;;3.96;100.00;100344.47;5042288;28;20298;-61
2021/01/28 06:14:33;;;;;;;12.13;5.72;;;;;;;3.96;100.00;100339.13;5046269;28;20046;-61
2021/01/28 06:17:12;;;;;;;12.38;5.20;;;;;;;3.96;100.00;100338.25;5041058;28;20045;-61
2021/01/28 06:19:58;;;;;;;15.55;5.90;;;;;;;3.95;100.00;100331.25;5045602;28;20052;-61
2021/01/28 06:22:38;;;;;;;20.10;6.50;;;;;;;4.03;100.00;100326.22;5042689;28;20053;-61
2021/01/28 06:25:28;;;;;;;13.85;6.38;;;;;;;4.00;100.00;100326.44;5043368;28;20056;-61
2021/01/28 06:28:19;;;;;;;10.80;5.60;;;;;;;4.03;100.00;100320.91;5044653;28;20048;-61
2021/01/28 06:30:52;;;;;;;16.25;7.07;;;;;;;4.03;100.00;100318.25;5042373;28;20037;-61
2021/01/28 06:33:37;;;;;;;18.80;6.72;;;;;;;4.00;100.00;100321.13;5042148;28;20110;-61
2021/01/28 06:36:10;;;;;;;16.67;6.80;;;;;;;3.97;100.00;100316.00;5036877;28;20060;-61
2021/01/28 06:38:51;;;;;;;19.25;7.03;;;;;;;4.04;100.00;100301.31;5043713;28;20057;-61
2021/01/28 06:41:25;;;;;;;18.45;6.18;;;;;;;3.98;100.00;100313.25;5043018;28;20056;-60
2021/01/28 06:43:58;;;;;;;18.02;7.57;;;;;;;4.01;100.00;100301.53;5053159;28;20098;-60
2021/01/28 06:46:32;;;;;;;21.63;7.85;;;;;;;3.98;100.00;100304.41;5062407;28;20062;-61
2021/01/28 06:49:12;;;;;;;15.90;7.40;;;;;;;4.03;100.00;100286.28;5063490;28;20414;-61
2021/01/28 06:51:47;;;;;;;18.65;7.75;;;;;;;4.03;100.00;100289.81;5063446;28;20071;-61
2021/01/28 06:54:19;;;;;;;20.27;8.25;;;;;;;3.98;100.00;100281.28;5064730;28;20052;-60
2021/01/28 06:56:51;;;;;;;17.48;6.85;;;;;;;3.97;100.00;100279.56;5059364;28;20064;-61
2021/01/28 06:59:24;;;;;;;17.83;7.60;;;;;;;3.97;100.00;100278.75;4952337;28;20056;-61
2021/01/28 07:01:57;;;;;;;19.08;7.55;;;;;;;3.95;100.00;100283.34;4958526;28;20049;-61
2021/01/28 07:04:31;;;;;;;18.00;7.55;;;;;;;4.03;100.00;100265.84;4963769;28;20171;-61
2021/01/28 07:07:02;;;;;;;19.13;8.07;;;;;;;3.99;100.00;100260.84;4961450;28;20056;-61
2021/01/28 07:09:35;;;;;;;18.88;8.45;;;;;;;3.94;100.00;100260.31;4969370;28;20555;-61
2021/01/28 07:12:04;;;;;;;22.48;9.43;;;;;;;3.95;100.00;100248.72;4983591;28;20056;-61
2021/01/28 07:14:31;;;;;;;25.23;10.35;;;;;;;3.93;100.00;100247.97;4982780;28;21201;-61
2021/01/28 07:17:03;;;;;;;21.48;9.27;;;;;;;3.91;100.00;100236.56;4980780;28;20526;-61
2021/01/28 07:19:32;;;;;;;23.85;9.70;;;;;;;3.90;100.00;100224.22;4980797;28;20103;-60
2021/01/28 07:21:58;;;;;;;22.02;10.32;;;;;;;3.86;100.00;100219.13;4969774;28;20513;-60
2021/01/28 07:24:28;;;;;;;26.60;10.60;;;;;;;3.84;100.00;100205.06;4964957;28;20057;-61
2021/01/28 07:26:56;;;;;;;24.75;11.10;;;;;;;3.86;100.00;100197.81;4967623;28;20064;-60
2021/01/28 07:29:51;;;;;;;23.00;11.77;;;;;;;3.89;100.00;100195.88;4961510;28;20652;-60
2021/01/28 07:32:54;;;;;;;26.95;11.48;;;;;;;3.98;100.00;100174.78;4953418;28;20165;-61
2021/01/28 07:35:40;;;;;;;24.02;9.90;;;;;;;3.89;100.00;100170.13;4959530;28;20060;-61
2021/01/28 07:38:45;;;;;;;28.40;11.95;;;;;;;3.93;100.00;100160.97;4966633;28;20505;-60
2021/01/28 07:41:24;;;;;;;24.25;12.00;;;;;;;3.87;100.00;100169.38;4965367;28;20052;-60
2021/01/28 07:43:52;;;;;;;30.13;13.10;;;;;;;3.91;100.00;100167.34;4963593;28;20599;-60
2021/01/28 07:46:38;;;;;;;30.52;13.10;;;;;;;3.82;100.00;100160.88;4959138;28;20088;-61
2021/01/28 07:49:11;;;;;;;29.08;13.23;;;;;;;3.88;100.00;100162.25;4962695;28;20137;-61
2021/01/28 07:51:39;;;;;;;26.02;12.98;;;;;;;3.88;100.00;100156.94;4961853;28;20164;-60
2021/01/28 07:54:36;;;;;;;28.05;13.93;;;;;;;3.84;100.00;100159.81;4960144;28;20597;-60
2021/01/28 07:57:04;;;;;;;30.02;13.48;;;;;;;3.89;100.00;100153.28;4960447;28;20053;-61
2021/01/28 07:59:38;;;;;;;29.38;13.98;;;;;;;3.86;100.00;100149.06;4961437;28;20106;-60
2021/01/28 08:02:24;;;;;;;29.20;13.57;;;;;;;3.88;100.00;100151.59;4956604;28;20901;-61
2021/01/28 08:04:57;;;;;;;31.00;12.63;;;;;;;3.90;100.00;100150.53;4958839;28;20159;-60
2021/01/28 08:07:26;;;;;;;29.05;13.02;;;;;;;3.93;100.00;100155.66;4961610;28;20053;-60
2021/01/28 08:09:54;;;;;;;24.17;12.73;;;;;;;3.88;100.00;100151.59;4963088;28;20049;-60
2021/01/28 08:12:27;;;;;;;22.90;12.35;;;;;;;3.88;100.00;100144.47;4962862;28;20433;-60
2021/01/28 08:14:53;;;;;;;27.73;12.73;;;;;;;3.82;100.00;100148.41;4965798;28;20165;-60
2021/01/28 08:17:26;;;;;;;28.70;12.48;;;;;;;3.84;100.00;100143.84;4970077;28;20053;-60
2021/01/28 08:19:52;;;;;;;25.35;12.13;;;;;;;3.88;100.00;100138.28;4966324;28;20143;-60
2021/01/28 08:22:21;;;;;;;24.65;11.57;;;;;;;3.94;100.00;100140.50;4964135;28;20311;-60
2021/01/28 08:24:54;;;;;;;;;;;;;;;3.88;100.00;100141.81;4965287;28;20052;-60
2021/01/28 08:27:27;;;;;;;24.33;12.10;;;;;;;3.90;100.00;100131.91;4972722;28;19950;-60
2021/01/28 08:30:05;;;;;;;27.38;10.85;;;;;;;3.84;100.00;100125.22;4975986;28;20040;-60
2021/01/28 08:32:33;;;;;;;28.08;11.57;;;;;;;3.82;100.00;100132.44;4969735;28;20054;-60
2021/01/28 08:35:01;;;;;;;24.58;10.82;;;;;;;3.82;100.00;100120.94;4976366;28;22088;-60
2021/01/28 08:37:29;;;;;;;20.83;9.70;;;;;;;3.84;100.00;100122.56;4984134;28;20106;-60
2021/01/28 08:39:56;;;;;;;22.52;10.13;;;;;;;3.82;100.00;100121.78;4982143;28;20139;-60
2021/01/28 08:42:24;;;;;;;23.27;9.68;;;;;;;3.82;100.00;100120.94;4966434;28;20048;-60
2021/01/28 08:45:08;;;;;;;23.75;10.43;;;;;;;3.78;100.00;100114.97;4962797;28;20084;-60
2021/01/28 08:47:35;;;;;;;25.13;10.23;;;;;;;3.89;100.00;100113.34;4964642;28;20139;-60
2021/01/28 08:50:06;;;;;;;22.05;8.95;;;;;;;3.90;100.00;100109.75;4964275;28;20068;-60
2021/01/28 08:52:33;;;;;;;20.52;8.88;;;;;;;3.84;100.00;100109.25;4972236;28;20131;-61
2021/01/28 08:55:07;;;;;;;18.63;9.13;;;;;;;3.81;100.00;100106.81;5050305;22;20446;-61
2021/01/28 08:57:33;;;;;;;21.23;8.48;;;;;;;3.88;100.00;100101.88;4980937;28;20771;-60
2021/01/28 09:00:02;;;;;;;18.67;8.52;;;;;;;3.88;100.00;100106.34;4972417;28;20060;-60
2021/01/28 09:02:31;;;;;;;19.65;8.52;;;;;;;3.80;100.00;100097.09;4968328;28;20258;-61
2021/01/28 09:05:04;;;;;;;14.45;7.57;;;;;;;3.85;100.00;100094.94;5062984;22;20072;-60
2021/01/28 09:07:51;;;;;;;21.10;8.57;;;;;;;3.89;100.00;100084.94;4984363;28;20051;-60
2021/01/28 09:10:34;;;;;;;20.17;8.65;;;;;;;3.91;100.00;100079.50;4992092;28;20118;-60
2021/01/28 09:13:18;;;;;;;17.65;8.80;;;;;;;3.91;100.00;100083.00;4990139;28;20148;-60
2021/01/28 09:15:45;;;;;;;19.63;8.10;;;;;;;3.93;100.00;100072.25;4983505;28;20048;-60
2021/01/28 09:18:20;;;;;;;16.80;8.02;;;;;;;3.93;100.00;100067.78;4987480;28;20566;-60
2021/01/28 09:20:48;;;;;;;15.93;8.15;;;;;;;3.95;100.00;100073.00;5003635;28;20048;-60
2021/01/28 09:23:15;;;;;;;18.23;8.98;;;;;;;3.96;100.00;100064.03;5059808;22;20064;-60
2021/01/28 09:25:44;;;;;;;18.33;8.48;;;;;;;3.93;100.00;100058.94;4932947;28;20206;-61
2021/01/28 09:28:14;;;;;;;16.35;8.10;;;;;;;3.97;100.00;100060.41;4943981;28;20057;-60
2021/01/28 09:30:41;;;;;;;;;;;;;;;3.89;100.00;100055.66;4940757;28;20063;-60
2021/01/28 09:33:27;;;;;;;20.05;8.10;;;;;;;3.95;100.00;100057.88;4940966;28;19977;-61
2021/01/28 09:36:03;;;;;;;15.10;7.35;;;;;;;4.01;100.00;100057.41;4941907;28;20082;-61
2021/01/28 09:38:29;;;;;;;18.38;8.13;;;;;;;4.03;100.00;100057.28;4935193;28;20732;-59
2021/01/28 09:41:10;;;;;;;13.57;7.10;;;;;;;4.02;100.00;100058.28;4940123;28;20547;-59
2021/01/28 09:43:36;;;;;;;12.63;7.05;;;;;;;4.00;100.00;100058.34;4943621;28;20167;-61
2021/01/28 09:46:21;;;;;;;15.68;7.35;;;;;;;3.99;100.00;100063.78;4955502;28;20774;-62
2021/01/28 09:48:48;;;;;;;13.65;6.22;;;;;;;3.99;100.00;100063.78;4949702;28;20049;-61
2021/01/28 09:51:28;;;;;;;17.65;8.02;;;;;;;3.95;100.00;100063.19;4930316;28;20130;-59
2021/01/28 09:54:00;;;;;;;;;;;;;;;3.99;100.00;100058.47;4935698;28;20552;-59
2021/01/28 09:56:26;;;;;;;16.65;7.63;;;;;;;4.04;100.00;100064.31;4936639;28;20095;-59
2021/01/28 09:58:52;;;;;;;12.35;6.60;;;;;;;4.12;100.00;100056.63;4935946;28;20215;-59
2021/01/28 10:01:18;;;;;;;16.42;7.75;;;;;;;4.10;100.00;100057.69;4939295;28;20519;-59
2021/01/28 10:03:45;;;;;;;16.98;8.25;;;;;;;4.11;100.00;100052.25;4945806;28;20615;-59
2021/01/28 10:06:11;;;;;;;13.70;7.03;;;;;;;4.08;100.00;100054.28;4949402;28;20076;-60
2021/01/28 10:08:38;;;;;;;14.65;7.50;;;;;;;4.10;100.00;100049.69;4949131;28;20045;-59
2021/01/28 10:11:04;;;;;;;14.23;6.75;;;;;;;4.05;100.00;100047.38;4941779;28;20052;-61
2021/01/28 10:13:30;;;;;;;13.30;6.90;;;;;;;4.11;100.00;100049.59;4937009;28;20183;-60
2021/01/28 10:15:56;;;;;;;12.73;6.15;;;;;;;4.10;100.00;100047.03;4937092;28;20583;-59
2021/01/28 10:18:24;;;;;;;12.90;6.55;;;;;;;4.09;100.00;100040.84;4936535;28;20052;-60
2021/01/28 10:20:50;;;;;;;11.82;6.53;;;;;;;4.18;100.00;100039.31;4935899;28;20045;-59
2021/01/28 10:23:16;;;;;;;11.77;6.60;;;;;;;4.20;100.00;100040.91;4934903;28;20053;-60
2021/01/28 10:25:43;;;;;;;10.18;6.07;;;;;;;4.17;100.00;100051.78;4935672;28;20053;-59
2021/01/28 10:28:09;;;;;;;12.45;6.15;;;;;;;4.19;100.00;100046.34;4935653;28;20084;-60
2021/01/28 10:30:35;;;;;;;11.40;6.07;;;;;;;4.24;100.00;100046.88;4925056;28;20172;-59
2021/01/28 10:33:03;;;;;;;11.93;6.40;;;;;;;4.24;100.00;100051.31;4914714;28;20061;-60
2021/01/28 10:35:31;;;;;;;11.25;6.07;;;;;;;4.20;100.00;100054.22;4936016;28;20455;-60
2021/01/28 10:38:00;;;;;;;9.93;5.78;;;;;;;4.20;100.00;100062.22;4935679;28;20053;-60
2021/01/28 10:40:27;;;;;;;12.47;6.13;;;;;;;4.20;100.00;100056.88;4935414;28;20130;-60
2021/01/28 10:42:56;;;;;;;11.75;5.75;;;;;;;4.27;100.00;100059.94;4937146;28;20494;-60
2021/01/28 10:45:25;;;;;;;11.73;5.82;;;;;;;4.21;100.00;100050.59;4920940;28;20081;-60
2021/01/28 10:47:51;;;;;;;10.13;5.38;;;;;;;4.27;100.00;100057.28;4942224;28;20212;-59
2021/01/28 10:50:20;;;;;;;8.73;5.07;;;;;;;4.28;100.00;100053.63;4940338;28;20434;-60
2021/01/28 10:52:47;;;;;;;9.93;6.05;;;;;;;4.23;100.00;100054.97;4939251;28;20516;-60
2021/01/28 10:55:13;;;;;;;11.15;5.85;;;;;;;4.35;100.00;100054.03;4943491;28;20085;-60
2021/01/28 10:57:39;;;;;;;13.02;6.38;;;;;;;4.33;100.00;100045.31;4946721;28;20911;-60
2021/01/28 11:00:07;;;;;;;8.65;5.10;;;;;;;4.40;100.00;100033.22;4954709;28;20184;-60
2021/01/28 11:02:33;;;;;;;10.25;5.28;;;;;;;4.36;100.00;100037.94;4941190;28;20088;-60
2021/01/28 11:04:59;;;;;;;8.98;5.50;;;;;;;4.39;100.00;100024.38;4935334;28;20399;-60
2021/01/28 11:07:25;;;;;;;12.57;5.55;;;;;;;4.43;100.00;100025.00;4936706;28;20180;-59
2021/01/28 11:09:51;;;;;;;11.48;5.78;;;;;;;4.41;100.00;100020.75;4953962;28;20060;-60
2021/01/28 11:12:18;;;;;;;9.60;5.13;;;;;;;4.41;100.00;100026.91;4957010;28;20500;-59
2021/01/28 11:14:43;;;;;;;10.70;6.03;;;;;;;4.46;100.00;100016.78;4954039;28;20521;-60
2021/01/28 11:17:11;;;;;;;12.65;5.93;;;;;;;4.48;100.00;100014.84;4948578;28;20434;-60
2021/01/28 11:19:37;;;;;;;13.00;5.68;;;;;;;4.43;100.00;100010.81;4961483;28;20643;-59
2021/01/28 11:22:03;;;;;;;12.30;6.28;;;;;;;4.41;100.00;100002.94;4944320;28;25468;-60
2021/01/28 11:24:29;;;;;;;11.75;5.95;;;;;;;4.49;100.00;100013.88;4946100;28;25510;-60
2021/01/28 11:26:55;;;;;;;11.10;5.60;;;;;;;4.59;100.00;100007.81;4944800;28;20985;-61
2021/01/28 11:29:24;;;;;;;11.63;5.25;;;;;;;4.57;100.00;100011.44;4941447;28;20280;-60
2021/01/28 11:31:50;;;;;;;12.45;6.05;;;;;;;4.63;100.00;100009.28;4943736;28;20112;-60
2021/01/28 11:34:16;;;;;;;16.67;6.65;;;;;;;4.70;100.00;100015.84;4944801;28;21197;-59
2021/01/28 11:36:43;;;;;;;13.52;6.57;;;;;;;4.69;100.00;100008.81;4940872;28;20108;-61
2021/01/28 11:39:09;;;;;;;14.60;6.45;;;;;;;4.59;100.00;100011.31;4936104;28;20699;-60
2021/01/28 11:41:35;;;;;;;15.88;6.68;;;;;;;4.52;100.00;100007.44;4946758;28;20049;-60
2021/01/28 11:44:01;;;;;;;12.63;6.43;;;;;;;4.59;100.00;100003.34;4959046;28;20063;-60
2021/01/28 11:46:27;;;;;;;13.88;7.35;;;;;;;4.50;100.00;99999.56;4955412;28;20069;-60
2021/01/28 11:51:46;;;;;;;19.77;9.52;;;;;;;4.59;100.00;99994.50;4982468;22;20180;-60
2021/01/28 11:54:12;;;;;;;20.30;9.50;;;;;;;4.57;100.00;100000.78;4950099;28;20144;-61